Time;durP1;ratioP1;P1;durP2;ratioP2;P2;SDS_P1;SDS_P2;PMS_P1;PMS_P2;Temp;Humidity;BMP_temperature;BMP_pressure;BME280_temperature;BME280_humidity;BME280_pressure;Samples;Min_cycle;Max_cycle;Signal;HPM_P1;HPM_P2
2022/02/06 00:00:56;;;;;;;5.53;3.93;;;;;;;-0.20;100.00;100021.06;4903305;29;20201;-82
2022/02/06 00:03:22;;;;;;;5.40;3.40;;;;;;;-0.16;100.00;100012.75;4902136;29;20194;-82
2022/02/06 00:05:50;;;;;;;4.20;3.00;;;;;;;-0.11;100.00;100007.88;4889842;29;20221;-81
2022/02/06 00:08:17;;;;;;;4.70;2.87;;;;;;;-0.04;100.00;100008.13;4914925;29;20278;-81
2022/02/06 00:10:44;;;;;;;4.23;3.00;;;;;;;0.09;100.00;100005.19;4915486;29;20491;-82
2022/02/06 00:13:10;;;;;;;4.73;3.13;;;;;;;0.08;100.00;99999.09;4883210;29;20206;-82
2022/02/06 00:15:37;;;;;;;5.00;3.10;;;;;;;0.07;100.00;99989.53;4915587;29;20483;-81
2022/02/06 00:18:04;;;;;;;4.20;3.17;;;;;;;0.09;100.00;99992.88;4902857;29;20601;-81
2022/02/06 00:20:39;;;;;;;4.20;3.17;;;;;;;0.18;100.00;99989.34;4918763;29;20222;-80
2022/02/06 00:23:10;;;;;;;5.50;3.37;;;;;;;0.22;100.00;99976.72;4919042;29;20198;-79
2022/02/06 00:43:28;;;;;;;4.40;3.07;;;;;;;0.23;100.00;99960.78;4903062;29;20238;-81
2022/02/06 00:45:55;;;;;;;6.50;3.37;;;;;;;0.24;100.00;99954.50;4918462;29;20471;-80
2022/02/06 00:48:25;;;;;;;4.00;2.70;;;;;;;0.25;100.00;99971.16;4918821;29;20190;-80
2022/02/06 00:51:09;;;;;;;5.03;3.30;;;;;;;0.14;100.00;99958.97;4899841;29;20186;-81
2022/02/06 00:53:36;;;;;;;4.00;3.00;;;;;;;0.29;100.00;99969.88;4867800;29;20222;-81
2022/02/06 00:56:03;;;;;;;4.13;2.80;;;;;;;0.26;100.00;99959.63;4883225;29;20204;-81
2022/02/06 00:58:29;;;;;;;4.77;3.10;;;;;;;0.27;100.00;99970.03;4901594;29;20198;-80
2022/02/06 01:00:56;;;;;;;3.30;2.83;;;;;;;0.19;100.00;99946.19;4918397;29;20316;-82
2022/02/06 01:03:23;;;;;;;4.33;3.20;;;;;;;0.26;100.00;99949.94;4901808;29;20204;-78
2022/02/06 01:05:54;;;;;;;4.13;3.00;;;;;;;0.21;100.00;99952.16;4918354;29;20199;-78
2022/02/06 01:08:21;;;;;;;4.40;3.10;;;;;;;0.20;100.00;99939.97;4902437;29;20205;-81
2022/02/06 01:10:48;;;;;;;4.70;3.13;;;;;;;0.21;100.00;99946.91;4882942;29;20194;-81
2022/02/06 01:13:22;;;;;;;4.17;2.90;;;;;;;0.11;100.00;99932.09;4883277;29;20651;-79
2022/02/06 01:15:58;;;;;;;2.83;2.50;;;;;;;0.09;100.00;99936.69;4882023;29;20250;-80
2022/02/06 01:21:35;;;;;;;3.67;2.70;;;;;;;-0.01;100.00;99920.94;4897289;29;20546;-77
2022/02/06 01:24:08;;;;;;;4.23;3.07;;;;;;;-0.13;100.00;99917.63;4918765;29;20182;-81
2022/02/06 01:34:16;;;;;;;3.77;2.93;;;;;;;-0.19;100.00;99888.44;4917911;29;20178;-80
2022/02/06 01:37:00;;;;;;;5.17;3.00;;;;;;;-0.24;100.00;99894.13;4901611;29;20194;-79
2022/02/06 01:39:50;;;;;;;3.83;2.60;;;;;;;-0.16;100.00;99893.41;4918059;29;20221;-80
2022/02/06 01:42:27;;;;;;;3.83;2.67;;;;;;;-0.13;100.00;99891.31;4916775;29;20213;-78
2022/02/06 02:04:29;;;;;;;4.90;3.13;;;;;;;-0.31;100.00;99856.19;4900902;29;20281;-81
2022/02/06 02:07:07;;;;;;;4.17;2.83;;;;;;;-0.33;100.00;99842.34;4917521;29;20193;-78
2022/02/06 02:46:57;;;;;;;6.83;3.70;;;;;;;-0.89;100.00;99840.53;4920867;29;20222;-78
2022/02/06 02:49:29;;;;;;;5.87;3.60;;;;;;;-0.95;100.00;99842.94;4889094;29;20222;-80
2022/02/06 02:52:02;;;;;;;5.57;3.23;;;;;;;-1.00;100.00;99830.22;4920893;29;20189;-80
2022/02/06 02:54:31;;;;;;;5.63;3.83;;;;;;;-1.01;100.00;99823.28;4920924;29;20586;-81
2022/02/06 02:57:13;;;;;;;6.20;3.50;;;;;;;-1.07;100.00;99815.94;4920661;29;20197;-81
2022/02/06 03:00:00;;;;;;;5.00;3.63;;;;;;;-1.03;100.00;99821.78;4920230;29;20258;-78
2022/02/06 03:02:27;;;;;;;4.53;3.57;;;;;;;-1.07;100.00;99830.88;4920553;29;20191;-83
2022/02/06 03:04:56;;;;;;;4.63;3.40;;;;;;;-1.15;100.00;99815.81;4904200;29;20491;-80
2022/02/06 03:07:23;;;;;;;4.20;3.57;;;;;;;-1.19;100.00;99814.44;4920753;29;20186;-80
2022/02/06 03:09:50;;;;;;;5.20;3.50;;;;;;;-1.24;100.00;99814.03;4920035;29;20187;-79
2022/02/06 03:12:22;;;;;;;4.97;3.67;;;;;;;-1.21;100.00;99813.75;4903917;29;20193;-80
2022/02/06 03:14:57;;;;;;;6.47;4.03;;;;;;;-1.23;100.00;99818.34;4889071;29;20179;-81
2022/02/06 03:17:39;;;;;;;5.73;3.67;;;;;;;-1.29;100.00;99805.75;4920751;29;20210;-81
2022/02/06 03:20:09;;;;;;;5.33;3.43;;;;;;;-1.23;100.00;99810.44;4905294;29;20622;-78
2022/02/06 03:22:48;;;;;;;5.30;3.60;;;;;;;-1.25;100.00;99816.78;4934772;29;20631;-81
2022/02/06 03:25:20;;;;;;;5.40;3.70;;;;;;;-1.20;100.00;99810.16;4933625;29;20247;-78
2022/02/06 03:27:48;;;;;;;5.77;3.70;;;;;;;-1.21;100.00;99813.75;4918931;29;20191;-80
2022/02/06 03:30:16;;;;;;;5.57;3.47;;;;;;;-1.28;100.00;99804.78;4920049;29;20190;-78
2022/02/06 03:32:43;;;;;;;5.93;3.53;;;;;;;-1.29;100.00;99803.13;4903700;29;20498;-77
2022/02/06 03:35:10;;;;;;;6.40;4.13;;;;;;;-1.27;100.00;99803.81;4888301;29;20194;-78
2022/02/06 03:37:37;;;;;;;5.20;3.70;;;;;;;-1.23;100.00;99804.34;4920233;29;20198;-79
2022/02/06 03:40:05;;;;;;;6.20;4.20;;;;;;;-1.17;100.00;99804.63;4919583;29;20228;-78
2022/02/06 03:42:37;;;;;;;4.90;3.67;;;;;;;-1.16;100.00;99797.56;4919057;29;20194;-80
2022/02/06 03:45:07;;;;;;;6.20;3.53;;;;;;;-1.18;100.00;99795.09;4920189;29;20187;-82
2022/02/06 03:47:47;;;;;;;4.67;3.53;;;;;;;-1.18;100.00;99802.97;4920243;29;20270;-78
2022/02/06 03:50:16;;;;;;;5.20;3.83;;;;;;;-1.21;100.00;99797.97;4902971;29;20277;-81
2022/02/06 03:52:48;;;;;;;6.30;3.77;;;;;;;-1.26;100.00;99802.03;4873229;29;20206;-78
2022/02/06 03:55:20;;;;;;;4.43;3.50;;;;;;;-1.38;100.00;99790.81;4869837;29;20580;-78
2022/02/06 03:57:48;;;;;;;4.37;3.43;;;;;;;-1.38;100.00;99789.00;4901215;29;20190;-80
2022/02/06 04:00:16;;;;;;;4.70;3.53;;;;;;;-1.46;100.00;99785.44;4902544;29;20221;-80
2022/02/06 04:02:45;;;;;;;5.00;3.50;;;;;;;-1.46;100.00;99786.25;4887788;29;20602;-79
2022/02/06 04:05:14;;;;;;;4.57;3.50;;;;;;;-1.45;100.00;99766.06;4903127;29;20204;-81
2022/02/06 04:07:42;;;;;;;6.70;3.67;;;;;;;-1.46;100.00;99767.03;4902641;29;20249;-78
2022/02/06 04:10:11;;;;;;;4.70;3.17;;;;;;;-1.46;100.00;99759.97;4887281;29;20197;-78
2022/02/06 04:12:40;;;;;;;4.43;3.50;;;;;;;-1.53;100.00;99755.41;4903530;29;20894;-76
2022/02/06 04:15:14;;;;;;;5.77;3.97;;;;;;;-1.46;100.00;99759.97;4887577;29;20198;-82
2022/02/06 04:17:48;;;;;;;7.13;5.13;;;;;;;-1.48;100.00;99747.94;4888239;29;20178;-81
2022/02/06 04:20:14;;;;;;;7.80;5.07;;;;;;;-1.48;100.00;99742.69;4919249;29;20202;-81
2022/02/06 04:22:41;;;;;;;7.70;5.40;;;;;;;-1.46;100.00;99727.63;4902815;29;20230;-78
2022/02/06 04:25:08;;;;;;;7.13;4.77;;;;;;;-1.46;100.00;99740.75;4902760;29;20198;-81
2022/02/06 04:27:35;;;;;;;7.30;5.00;;;;;;;-1.51;100.00;99721.94;4919341;29;20224;-81
2022/02/06 04:30:03;;;;;;;6.63;4.77;;;;;;;-1.55;100.00;99720.56;4919230;29;20190;-79
2022/02/06 04:32:29;;;;;;;6.83;4.60;;;;;;;-1.54;100.00;99727.50;4902724;29;20190;-79
2022/02/06 04:34:57;;;;;;;6.90;4.50;;;;;;;-1.53;100.00;99718.63;4902785;29;20230;-81
2022/02/06 04:48:23;;;;;;;5.77;3.93;;;;;;;-1.63;100.00;99742.28;4905059;29;20182;-81
2022/02/06 04:53:47;;;;;;;6.33;3.50;;;;;;;-1.61;100.00;99727.22;4918187;29;20214;-81
2022/02/06 05:15:34;;;;;;;3.93;3.10;;;;;;;-1.36;100.00;99707.41;4901542;29;20239;-81
2022/02/06 05:23:28;;;;;;;4.90;3.17;;;;;;;-1.31;100.00;99693.84;4901326;29;20199;-81
2022/02/06 05:31:04;;;;;;;4.87;2.83;;;;;;;-1.04;100.00;99691.25;4901501;29;20194;-81
2022/02/06 05:33:31;;;;;;;4.90;3.37;;;;;;;-0.96;100.00;99693.97;4900841;29;20839;-78
2022/02/06 05:35:58;;;;;;;5.70;3.60;;;;;;;-0.85;100.00;99692.97;4900953;29;20190;-81
2022/02/06 05:38:27;;;;;;;4.43;3.30;;;;;;;-0.73;100.00;99681.28;4900580;29;20224;-80
2022/02/06 05:40:53;;;;;;;4.40;3.43;;;;;;;-0.70;100.00;99681.81;4917895;29;20216;-81
2022/02/06 05:43:20;;;;;;;3.70;3.20;;;;;;;-0.55;100.00;99676.88;4918033;29;20736;-78
2022/02/06 05:45:47;;;;;;;4.33;3.23;;;;;;;-0.42;100.00;99672.09;4899915;29;20261;-79
2022/02/06 05:48:14;;;;;;;4.10;3.50;;;;;;;-0.21;100.00;99666.53;4917710;29;20250;-81
2022/02/06 05:50:43;;;;;;;3.97;3.40;;;;;;;-0.13;100.00;99667.44;4897551;29;20193;-77
2022/02/06 05:53:11;;;;;;;4.93;3.53;;;;;;;-0.09;100.00;99667.97;4917139;29;20198;-78
2022/02/06 05:55:38;;;;;;;5.47;4.77;;;;;;;-0.11;100.00;99662.03;4906689;29;20495;-80
2022/02/06 05:58:05;;;;;;;6.23;4.57;;;;;;;-0.02;100.00;99663.75;4900422;29;20194;-79
2022/02/06 06:00:32;;;;;;;5.67;4.40;;;;;;;0.04;100.00;99670.25;4917446;29;20229;-82
2022/02/06 06:03:00;;;;;;;6.53;3.70;;;;;;;0.08;100.00;99664.50;4918129;29;20536;-79
2022/02/06 06:05:27;;;;;;;4.00;3.60;;;;;;;0.10;100.00;99662.53;4902412;29;20191;-81
2022/02/06 06:07:54;;;;;;;4.30;3.53;;;;;;;0.14;100.00;99663.09;4885928;29;20218;-78
2022/02/06 06:10:25;;;;;;;4.47;3.30;;;;;;;0.13;100.00;99657.00;4900137;29;20241;-81
2022/02/06 06:12:51;;;;;;;4.20;3.30;;;;;;;0.15;100.00;99656.81;4904501;29;20198;-81
2022/02/06 06:15:18;;;;;;;5.10;3.60;;;;;;;0.15;100.00;99667.34;4903882;29;20573;-82
2022/02/06 06:17:46;;;;;;;4.27;3.20;;;;;;;0.16;100.00;99663.75;4870424;29;20202;-80
2022/02/06 06:20:16;;;;;;;5.77;3.70;;;;;;;0.14;100.00;99658.63;4904075;29;20503;-78
2022/02/06 06:22:43;;;;;;;4.67;3.60;;;;;;;0.19;100.00;99660.78;4905249;29;20660;-82
2022/02/06 06:25:11;;;;;;;4.50;3.90;;;;;;;0.21;100.00;99658.84;4920304;29;20195;-80
2022/02/06 06:27:38;;;;;;;4.37;3.50;;;;;;;0.23;100.00;99656.91;4929466;29;20202;-77
2022/02/06 06:30:05;;;;;;;4.20;3.60;;;;;;;0.23;100.00;99649.81;4885416;29;20203;-78
2022/02/06 06:32:32;;;;;;;4.33;3.43;;;;;;;0.30;100.00;99665.84;4870241;29;20202;-80
2022/02/06 06:35:00;;;;;;;5.67;3.80;;;;;;;0.26;100.00;99656.59;4906751;29;20194;-78
2022/02/06 06:37:27;;;;;;;4.20;3.70;;;;;;;0.35;100.00;99647.75;4917291;29;20190;-81
2022/02/06 06:39:54;;;;;;;5.27;4.10;;;;;;;0.35;100.00;99653.84;4884582;29;20199;-79
2022/02/06 06:42:20;;;;;;;6.03;3.70;;;;;;;0.39;100.00;99652.56;4902127;29;20214;-81
2022/02/06 06:44:47;;;;;;;4.77;3.80;;;;;;;0.47;100.00;99648.34;4884755;29;20201;-81
2022/02/06 06:47:14;;;;;;;5.80;4.07;;;;;;;0.54;100.00;99644.09;4878791;29;20225;-80
2022/02/06 06:49:41;;;;;;;5.30;4.00;;;;;;;0.59;100.00;99649.72;4901962;29;20274;-81
2022/02/06 06:52:08;;;;;;;5.13;3.90;;;;;;;0.63;100.00;99645.78;4913872;29;20187;-81
2022/02/06 06:54:39;;;;;;;5.07;3.87;;;;;;;0.66;100.00;99634.94;4920216;29;20209;-81
2022/02/06 07:04:49;;;;;;;5.00;3.80;;;;;;;0.99;100.00;99628.00;4904103;29;20218;-80
2022/02/06 07:07:17;;;;;;;4.20;3.77;;;;;;;1.04;100.00;99633.63;4886716;29;20572;-81
2022/02/06 07:09:43;;;;;;;5.17;4.10;;;;;;;1.11;100.00;99627.59;4920505;29;20609;-78
2022/02/06 07:12:13;;;;;;;3.80;3.40;;;;;;;1.15;100.00;99620.16;4903440;29;20604;-81
2022/02/06 07:14:40;;;;;;;5.27;4.00;;;;;;;1.30;100.00;99621.22;4888274;29;20272;-82
2022/02/06 07:17:07;;;;;;;5.13;3.90;;;;;;;1.39;100.00;99608.84;4920194;29;20202;-81
2022/02/06 07:19:38;;;;;;;4.93;4.00;;;;;;;1.52;100.00;99609.22;4886532;29;20706;-81
2022/02/06 07:22:08;;;;;;;4.90;3.97;;;;;;;1.73;100.00;99609.56;4903248;29;20242;-80
2022/02/06 07:24:36;;;;;;;5.17;4.13;;;;;;;1.89;100.00;99609.59;4903084;29;20583;-80
2022/02/06 07:27:15;;;;;;;4.37;3.90;;;;;;;2.00;100.00;99603.16;4888255;29;20198;-77
2022/02/06 07:29:42;;;;;;;5.17;3.80;;;;;;;2.20;100.00;99607.09;4905393;29;20174;-78
2022/02/06 07:32:09;;;;;;;4.73;4.10;;;;;;;2.31;100.00;99605.94;4903000;29;20198;-79
2022/02/06 07:34:36;;;;;;;4.50;4.00;;;;;;;2.46;100.00;99618.31;4903213;29;20194;-81
2022/02/06 07:37:04;;;;;;;7.63;6.00;;;;;;;2.63;100.00;99616.44;4902812;29;20198;-78
2022/02/06 07:39:31;;;;;;;5.70;4.43;;;;;;;2.75;100.00;99615.09;4902932;29;20202;-79
2022/02/06 07:41:57;;;;;;;6.77;5.57;;;;;;;2.83;100.00;99611.59;4902930;29;20220;-81
2022/02/06 07:44:25;;;;;;;5.70;4.87;;;;;;;2.86;100.00;99611.25;4903179;29;20610;-79
2022/02/06 07:47:01;;;;;;;4.77;4.27;;;;;;;2.96;100.00;99606.59;4902124;29;20646;-80
2022/02/06 07:49:28;;;;;;;5.27;3.93;;;;;;;3.02;100.00;99604.09;4888158;29;20218;-81
2022/02/06 07:51:54;;;;;;;5.57;4.00;;;;;;;3.07;100.00;99611.53;4886834;29;20202;-78
2022/02/06 07:54:21;;;;;;;5.27;4.00;;;;;;;3.09;99.04;99612.97;4902731;29;20221;-78
2022/02/06 07:56:48;;;;;;;5.00;4.10;;;;;;;3.17;99.44;99622.72;4902565;29;20199;-81
2022/02/06 07:59:15;;;;;;;5.27;4.60;;;;;;;3.24;97.36;99621.03;4919608;29;20194;-81
2022/02/06 08:01:42;;;;;;;5.40;4.27;;;;;;;3.33;97.51;99609.41;4909650;29;20210;-81
2022/02/06 08:04:09;;;;;;;4.63;4.07;;;;;;;3.41;95.90;99611.16;4919677;29;20548;-81
2022/02/06 08:06:36;;;;;;;4.40;4.00;;;;;;;3.43;96.46;99625.06;4919548;29;20198;-81
2022/02/06 08:09:03;;;;;;;4.50;4.03;;;;;;;3.42;95.72;99616.28;4902814;29;20198;-82
2022/02/06 08:11:43;;;;;;;5.57;3.93;;;;;;;3.44;96.76;99616.97;4888010;29;20194;-78
2022/02/06 08:14:09;;;;;;;6.90;4.40;;;;;;;3.23;100.00;99619.38;4920528;29;20190;-79
2022/02/06 08:16:36;;;;;;;4.10;3.60;;;;;;;3.21;100.00;99624.03;4896120;29;20212;-78
2022/02/06 08:19:03;;;;;;;4.27;3.83;;;;;;;3.23;100.00;99626.47;4917866;29;20198;-80
2022/02/06 08:21:29;;;;;;;5.23;4.00;;;;;;;3.21;100.00;99621.38;4879322;29;20235;-81
2022/02/06 08:23:56;;;;;;;6.17;4.00;;;;;;;3.28;100.00;99622.31;4900864;29;20547;-82
2022/02/06 08:26:25;;;;;;;5.17;4.13;;;;;;;3.38;100.00;99627.41;4884213;29;20588;-82
2022/02/06 08:28:59;;;;;;;4.57;4.00;;;;;;;3.58;100.00;99622.50;4898792;29;20210;-81
2022/02/06 08:31:27;;;;;;;5.37;3.90;;;;;;;3.73;100.00;99618.13;4903698;29;20221;-81
2022/02/06 08:33:54;;;;;;;4.17;3.63;;;;;;;3.53;100.00;99623.03;4887417;29;20190;-82
2022/02/06 08:36:20;;;;;;;5.50;3.87;;;;;;;3.58;100.00;99620.69;4920008;29;20504;-81
2022/02/06 08:39:04;;;;;;;4.27;3.70;;;;;;;3.73;100.00;99618.94;4919936;29;20179;-82
2022/02/06 08:41:30;;;;;;;5.57;4.17;;;;;;;3.67;100.00;99627.59;4902290;29;20229;-81
2022/02/06 08:43:57;;;;;;;4.83;3.77;;;;;;;3.81;100.00;99618.06;4919635;29;20223;-82
2022/02/06 08:46:24;;;;;;;5.40;3.70;;;;;;;3.95;100.00;99615.47;4903020;29;20198;-82
2022/02/06 08:48:51;;;;;;;14.00;10.57;;;;;;;4.14;100.00;99615.97;4902396;29;20202;-82
2022/02/06 08:51:17;;;;;;;19.10;13.37;;;;;;;4.21;100.00;99608.94;4903059;29;20518;-81
2022/02/06 08:53:44;;;;;;;24.07;16.03;;;;;;;4.37;100.00;99603.50;4903207;29;20283;-77
2022/02/06 08:56:11;;;;;;;23.63;18.10;;;;;;;4.41;100.00;99599.47;4888121;29;20226;-82
2022/02/06 08:58:38;;;;;;;9.10;7.30;;;;;;;4.47;100.00;99596.09;4920430;29;20198;-82
2022/02/06 09:01:05;;;;;;;11.83;9.10;;;;;;;4.52;100.00;99591.09;4919804;29;20210;-82
2022/02/06 09:03:31;;;;;;;8.53;6.50;;;;;;;4.55;100.00;99598.66;4902943;29;20206;-81
2022/02/06 09:05:58;;;;;;;6.70;5.43;;;;;;;4.58;100.00;99586.84;4902621;29;20198;-82
2022/02/06 09:08:25;;;;;;;13.30;10.10;;;;;;;4.63;97.17;99582.66;4906115;29;20257;-82
2022/02/06 09:10:52;;;;;;;9.63;8.50;;;;;;;4.51;97.68;99570.03;4902900;29;20213;-82
2022/02/06 09:13:19;;;;;;;11.27;8.40;;;;;;;4.53;98.04;99584.75;4920561;29;20593;-81
2022/02/06 09:15:46;;;;;;;16.23;11.30;;;;;;;4.53;98.31;99578.63;4900695;29;20600;-82
2022/02/06 09:18:13;;;;;;;8.37;6.73;;;;;;;4.47;97.01;99566.09;4884466;29;20201;-80
2022/02/06 09:20:40;;;;;;;8.00;6.77;;;;;;;4.50;96.26;99557.75;4897443;29;20515;-82
2022/02/06 09:23:06;;;;;;;7.83;6.43;;;;;;;4.66;94.15;99557.59;4919749;29;20215;-82
2022/02/06 09:25:33;;;;;;;10.00;8.03;;;;;;;4.51;94.11;99544.31;4919988;29;20216;-80
2022/02/06 09:28:01;;;;;;;12.53;9.33;;;;;;;4.50;93.84;99536.53;4902744;29;20617;-82
2022/02/06 09:30:29;;;;;;;20.03;14.00;;;;;;;4.32;93.87;99536.91;4902432;29;20198;-81
2022/02/06 09:35:23;;;;;;;24.00;15.17;;;;;;;4.15;93.90;99517.69;4902480;29;20197;-81
2022/02/06 09:37:51;;;;;;;14.67;10.83;;;;;;;4.01;95.24;99517.66;4887097;29;20198;-82
2022/02/06 09:40:19;;;;;;;13.40;10.43;;;;;;;3.93;96.83;99526.50;4903268;29;20647;-81
2022/02/06 09:42:50;;;;;;;13.40;10.97;;;;;;;3.84;98.31;99539.00;4919192;29;20641;-82
2022/02/06 09:45:17;;;;;;;16.40;13.03;;;;;;;3.76;98.93;99517.88;4886262;29;20209;-81
2022/02/06 09:47:49;;;;;;;14.20;10.53;;;;;;;3.77;97.97;99518.72;4918984;29;20620;-80
2022/02/06 09:50:16;;;;;;;16.33;14.07;;;;;;;3.87;97.80;99513.97;4888144;29;20194;-80
2022/02/06 09:52:44;;;;;;;13.63;10.33;;;;;;;3.94;97.41;99504.28;4884648;29;20187;-82
2022/02/06 09:55:17;;;;;;;9.97;8.60;;;;;;;4.04;96.01;99504.88;4885367;29;20562;-81
2022/02/06 10:00:41;;;;;;;10.87;8.87;;;;;;;4.25;95.74;99493.53;4898492;29;20202;-81
2022/02/06 10:03:11;;;;;;;10.43;8.70;;;;;;;4.31;93.12;99484.84;4889829;29;20626;-82
2022/02/06 10:05:41;;;;;;;9.90;8.20;;;;;;;4.32;93.76;99482.03;4901850;29;20241;-81
2022/02/06 10:08:20;;;;;;;10.57;8.30;;;;;;;4.62;92.34;99472.19;4884041;29;20191;-79
2022/02/06 10:11:10;;;;;;;9.03;8.00;;;;;;;4.90;91.47;99455.59;4883960;29;20662;-82
2022/02/06 10:13:39;;;;;;;12.27;8.20;;;;;;;5.16;89.61;99454.06;4886570;29;20250;-82
2022/02/06 10:16:08;;;;;;;8.73;7.93;;;;;;;5.48;87.73;99441.25;4900425;29;20194;-74
2022/02/06 10:18:36;;;;;;;12.57;10.03;;;;;;;5.85;84.67;99438.28;4916578;29;20246;-79
2022/02/06 10:21:05;;;;;;;19.23;14.70;;;;;;;6.14;80.35;99427.47;4907983;29;20244;-77
2022/02/06 10:26:52;;;;;;;18.80;12.13;;;;;;;6.61;75.64;99388.59;4921814;29;20186;-82
2022/02/06 10:31:54;;;;;;;11.27;9.47;;;;;;;7.13;69.94;99379.06;4918960;29;20265;-80
2022/02/06 10:34:23;;;;;;;11.17;9.80;;;;;;;7.47;69.04;99371.69;4911250;29;20201;-81
2022/02/06 10:37:10;;;;;;;13.27;10.73;;;;;;;7.64;66.42;99364.09;4936862;29;20185;-82
2022/02/06 10:39:40;;;;;;;10.93;9.37;;;;;;;7.73;66.28;99364.72;4921005;29;20194;-82
2022/02/06 10:42:19;;;;;;;10.63;9.13;;;;;;;7.65;65.85;99364.94;4885699;29;20218;-76
2022/02/06 10:44:46;;;;;;;10.73;9.10;;;;;;;7.56;66.57;99358.16;4901386;29;20543;-78
2022/02/06 10:47:13;;;;;;;9.67;8.47;;;;;;;7.51;67.75;99351.59;4900557;29;20233;-75
2022/02/06 10:50:02;;;;;;;10.53;8.43;;;;;;;7.68;66.41;99359.16;4886976;29;20270;-78
2022/02/06 10:52:29;;;;;;;10.03;8.00;;;;;;;7.63;64.18;99349.13;4904368;29;20205;-80
2022/02/06 10:54:56;;;;;;;9.20;8.30;;;;;;;7.50;66.92;99333.97;4920714;29;20621;-81
2022/02/06 10:57:23;;;;;;;8.60;7.70;;;;;;;7.53;66.20;99343.41;4920792;29;20202;-75
2022/02/06 10:59:53;;;;;;;8.63;6.97;;;;;;;7.53;64.71;99340.72;4904704;29;20187;-80
2022/02/06 11:02:22;;;;;;;7.23;6.53;;;;;;;7.43;65.23;99327.81;4921961;29;20235;-81
2022/02/06 11:05:15;;;;;;;7.30;6.60;;;;;;;7.41;66.98;99345.06;4881002;29;20221;-80
2022/02/06 11:08:02;;;;;;;8.67;7.77;;;;;;;7.32;68.39;99344.44;4872339;29;20191;-78
2022/02/06 11:10:34;;;;;;;7.70;6.90;;;;;;;7.35;69.64;99332.53;4872389;29;20187;-80
2022/02/06 11:13:03;;;;;;;10.13;6.57;;;;;;;7.37;71.20;99325.97;4887314;29;20239;-77
2022/02/06 11:15:37;;;;;;;7.53;6.37;;;;;;;7.45;71.87;99330.28;4903260;29;20721;-80
2022/02/06 11:18:11;;;;;;;9.30;7.10;;;;;;;7.54;71.75;99334.38;4903848;29;20184;-78
2022/02/06 11:20:40;;;;;;;7.90;6.73;;;;;;;7.60;72.34;99327.41;4886311;29;20538;-78
2022/02/06 11:23:06;;;;;;;8.93;7.30;;;;;;;7.76;71.12;99333.09;4852553;29;20226;-78
2022/02/06 11:25:34;;;;;;;8.07;7.03;;;;;;;7.86;69.48;99324.66;4883851;29;20604;-78
2022/02/06 11:28:04;;;;;;;8.83;7.40;;;;;;;8.08;67.40;99311.88;4867623;29;20196;-77
2022/02/06 11:30:30;;;;;;;8.93;7.40;;;;;;;8.22;64.90;99297.44;4867920;29;20192;-78
2022/02/06 11:32:57;;;;;;;9.23;6.70;;;;;;;8.27;62.35;99276.28;4852784;29;20592;-81
2022/02/06 11:35:27;;;;;;;8.00;6.37;;;;;;;8.20;60.87;99267.50;4883300;29;20196;-78
2022/02/06 11:44:09;;;;;;;6.33;5.20;;;;;;;7.86;63.18;99255.31;4884252;29;20231;-78
2022/02/06 11:46:54;;;;;;;8.87;6.20;;;;;;;7.81;63.06;99236.47;4884095;29;20198;-78
2022/02/06 11:49:22;;;;;;;7.23;5.53;;;;;;;7.74;62.45;99236.50;4852828;29;20191;-79
2022/02/06 11:51:57;;;;;;;6.10;5.50;;;;;;;7.97;62.55;99228.00;4884568;29;20618;-77
2022/02/06 11:54:35;;;;;;;7.17;5.40;;;;;;;8.04;62.84;99211.94;4884253;29;20230;-79
2022/02/06 12:00:02;;;;;;;6.30;5.70;;;;;;;8.38;59.83;99190.22;4883665;29;20510;-77
2022/02/06 12:02:48;;;;;;;5.97;5.20;;;;;;;8.71;57.68;99185.44;4882800;29;20220;-77
2022/02/06 12:05:20;;;;;;;6.40;5.23;;;;;;;8.87;55.62;99181.38;4883572;29;20203;-77
2022/02/06 12:08:04;;;;;;;5.57;4.83;;;;;;;9.16;52.91;99177.22;4883890;29;20224;-78
2022/02/06 12:10:34;;;;;;;6.70;5.70;;;;;;;9.60;53.00;99155.53;4883575;29;20632;-75
2022/02/06 12:13:12;;;;;;;5.80;5.20;;;;;;;9.82;51.74;99150.53;4867298;29;20271;-80
2022/02/06 12:16:00;;;;;;;6.50;5.50;;;;;;;9.92;50.74;99142.78;4884505;29;20236;-80
2022/02/06 12:18:37;;;;;;;5.10;4.60;;;;;;;10.13;48.94;99123.50;4868998;29;20188;-81
2022/02/06 12:21:19;;;;;;;5.80;5.20;;;;;;;10.15;48.91;99109.91;4871554;29;20238;-78
2022/02/06 12:23:49;;;;;;;5.13;4.63;;;;;;;10.27;48.33;99105.41;4902598;29;20234;-76
2022/02/06 12:26:31;;;;;;;5.43;4.37;;;;;;;10.16;47.56;99100.88;4885663;29;20239;-75
2022/02/06 12:28:59;;;;;;;4.60;3.80;;;;;;;10.32;45.72;99102.03;4901672;29;20198;-76
2022/02/06 12:31:30;;;;;;;3.90;3.50;;;;;;;10.57;43.29;99094.63;4901848;29;20205;-75
2022/02/06 12:39:22;;;;;;;3.20;2.83;;;;;;;11.54;37.79;99070.69;4902600;29;20191;-75
2022/02/06 12:41:49;;;;;;;3.30;2.30;;;;;;;11.70;36.56;99051.97;4900744;29;20289;-76
2022/02/06 12:44:17;;;;;;;3.33;2.40;;;;;;;11.93;36.63;99051.06;4885900;29;20284;-77
2022/02/06 12:46:47;;;;;;;3.03;2.17;;;;;;;11.99;35.79;99039.34;4870160;29;20195;-76
2022/02/06 12:49:21;;;;;;;2.40;2.10;;;;;;;12.09;35.26;99033.31;4902451;29;20191;-76
2022/02/06 12:51:55;;;;;;;1.97;1.77;;;;;;;12.16;34.28;99025.94;4886114;29;20222;-76
2022/02/06 12:54:23;;;;;;;9.97;7.30;;;;;;;12.46;34.00;99030.97;4885297;29;20239;-75
2022/02/06 12:56:54;;;;;;;3.27;2.97;;;;;;;12.54;33.88;99026.00;4884876;29;20187;-76
2022/02/06 12:59:22;;;;;;;4.83;3.50;;;;;;;12.73;32.37;99013.91;4885501;29;20191;-76
2022/02/06 13:01:49;;;;;;;3.33;3.03;;;;;;;12.70;33.43;99014.38;4870337;29;20195;-76
2022/02/06 13:04:28;;;;;;;2.17;1.97;;;;;;;12.57;32.85;99000.50;4901358;29;20485;-75
2022/02/06 13:07:01;;;;;;;2.63;1.80;;;;;;;12.41;31.72;99004.03;4883804;29;20203;-75
2022/02/06 13:09:44;;;;;;;4.07;2.77;;;;;;;12.51;31.13;98996.91;4898770;29;20223;-76
2022/02/06 13:22:53;;;;;;;2.20;1.90;;;;;;;12.31;32.39;98985.91;4887182;29;20238;-77
2022/02/06 13:38:40;;;;;;;5.43;3.60;;;;;;;11.91;32.25;98945.78;4883663;29;20191;-76
2022/02/06 13:41:17;;;;;;;3.40;2.80;;;;;;;11.64;33.05;98936.72;4883573;29;20284;-77
2022/02/06 13:43:45;;;;;;;3.00;2.70;;;;;;;11.46;33.77;98937.78;4883371;29;20215;-75
2022/02/06 13:46:13;;;;;;;3.43;2.90;;;;;;;11.44;34.10;98924.59;4883225;29;20496;-76
2022/02/06 13:48:40;;;;;;;3.83;2.80;;;;;;;11.37;34.40;98932.00;4883125;29;20207;-77
2022/02/06 13:51:09;;;;;;;3.67;3.17;;;;;;;11.19;35.58;98929.53;4868026;29;20598;-75
2022/02/06 13:53:36;;;;;;;3.90;3.20;;;;;;;11.08;36.21;98922.34;4868897;29;20199;-78
2022/02/06 13:56:06;;;;;;;4.00;3.60;;;;;;;10.95;36.77;98915.41;4883536;29;20191;-76
2022/02/06 13:58:34;;;;;;;4.23;3.20;;;;;;;10.82;37.43;98915.69;4883864;29;20600;-75
2022/02/06 14:01:07;;;;;;;4.10;3.70;;;;;;;10.69;37.28;98915.13;4883486;29;20480;-75
2022/02/06 14:03:40;;;;;;;4.77;3.30;;;;;;;10.59;37.63;98921.13;4883419;29;20207;-76
2022/02/06 14:06:15;;;;;;;3.00;2.70;;;;;;;10.44;38.35;98920.78;4899851;29;20193;-75
2022/02/06 14:09:26;;;;;;;3.53;2.97;;;;;;;10.29;38.94;98918.59;4899152;29;20668;-79
2022/02/06 14:12:00;;;;;;;3.13;2.37;;;;;;;10.15;41.13;98914.50;4886224;29;20195;-76
2022/02/06 14:14:28;;;;;;;5.33;3.17;;;;;;;10.03;40.34;98911.81;4899452;29;20179;-76
2022/02/06 14:17:20;;;;;;;4.47;3.90;;;;;;;9.98;40.41;98900.22;4885229;29;20223;-75
2022/02/06 14:19:48;;;;;;;5.23;3.40;;;;;;;9.94;42.04;98902.50;4882905;29;20222;-77
2022/02/06 14:22:25;;;;;;;4.93;3.30;;;;;;;9.90;42.80;98892.50;4882395;29;20231;-74
2022/02/06 14:24:54;;;;;;;4.50;3.63;;;;;;;9.79;42.28;98888.81;4899360;29;20234;-78
2022/02/06 14:27:44;;;;;;;3.67;3.37;;;;;;;9.83;42.58;98881.94;4902879;29;20600;-75
2022/02/06 14:30:16;;;;;;;4.10;3.20;;;;;;;9.66;41.92;98876.44;4886215;29;20194;-75
2022/02/06 14:33:05;;;;;;;7.93;3.40;;;;;;;9.52;42.54;98872.38;4886410;29;20171;-76
2022/02/06 14:35:39;;;;;;;4.20;3.80;;;;;;;9.64;42.37;98873.22;4886242;29;20247;-78
2022/02/06 14:38:08;;;;;;;3.77;3.33;;;;;;;9.36;43.67;98870.38;4886535;29;20239;-74
2022/02/06 14:43:11;;;;;;;4.93;3.80;;;;;;;9.09;46.92;98867.31;4902644;29;20217;-75
2022/02/06 14:45:49;;;;;;;4.70;3.83;;;;;;;8.95;48.42;98852.50;4887094;29;20179;-75
2022/02/06 14:48:21;;;;;;;5.30;3.70;;;;;;;8.97;49.00;98868.28;4902951;29;20187;-75
2022/02/06 14:50:49;;;;;;;4.53;3.40;;;;;;;8.95;50.25;98860.53;4902850;29;20596;-78
2022/02/06 14:53:16;;;;;;;4.20;3.80;;;;;;;8.90;49.75;98855.06;4870397;29;20194;-77
2022/02/06 14:55:46;;;;;;;4.50;3.83;;;;;;;8.84;49.25;98843.41;4902614;29;20235;-77